Airfield :
LOGIN :

Register | Disclaimer

   EN    FR    IT 

 










Legend :    VFR   Marginal VFR   IFR   Intensive IFR   Very Intensive IFR
Visi :
Ceiling :
>= 8 km
>= 3000ft
5 to 8 km
1000 to 3000 ft
1500m to 5 km
500 to 1000 ft
800 to 1500m
200 to 500 ft
< 800m
< 200 ft
Symbols :   Thunderstorms  Fog  Heavy snow  Heavy precipitations  Wind > 20 kt
SIGMETs :     Misc.  Thunderstorms  Icing  Turbulence  Mountain Waves  Volcanic Ashes







- Airport Elevation : 2026 ft
- IATA code : TOJ


LETO - Madrid Torrejon

CURRENT METAR :
  • 170200Z VRB02KT CAVOK 01/00 Q1028 NOSIG

EXPIRED METARs :
  • 170100Z 06002KT CAVOK 01/00 Q1027 NOSIG
  • 170000Z 36004KT CAVOK 01/00 Q1027 NOSIG

TAF TAF LETO
Valid from the 17 at 00:00 until the 18 at 00:00 UTC


162300Z 1700/1724 28004KT CAVOK TX11/1715Z TNM01/1707Z
PROB40
TEMPO 1706/1711 3500 BR BKN006
PROB40
TEMPO 1706/1710 1200 BCFG BKN003
PROB30
TEMPO 1706/1710 0300 FZFG FG VV001
No reported NOTAMs for that airfield.



MET'MAP, your aeronautical weather chart ! - Copyright ORBIFLY December 2007 - Disclaimer

ORBIFLY MET'MAP TEAM :

Programming & Development : Alexandra Zaïnal
Concept & Development : Baudouin d'Aumeries
Co-Development & Prog : Marc-Olivier Méhu
Technical & hardware support : Manuel Goepfert

Contact : metmap@orbifly.com




SOURCES & CREDITS :

   NOAA